sensor_id;sensor_type;location;lat;lon;timestamp;temperature;humidity
63960;DHT22;50136;51.374;0.096;2023-03-25T00:03:33;8.80;99.90
63960;DHT22;50136;51.374;0.096;2023-03-25T00:13:35;8.60;99.90
63960;DHT22;50136;51.374;0.096;2023-03-25T00:23:40;8.60;99.90
63960;DHT22;50136;51.374;0.096;2023-03-25T00:33:42;8.50;99.90
63960;DHT22;50136;51.374;0.096;2023-03-25T00:43:45;8.50;99.90
63960;DHT22;50136;51.374;0.096;2023-03-25T00:53:49;8.50;99.90
63960;DHT22;50136;51.374;0.096;2023-03-25T01:03:54;8.50;99.90
63960;DHT22;50136;51.374;0.096;2023-03-25T01:13:56;8.60;99.90
63960;DHT22;50136;51.374;0.096;2023-03-25T01:24:00;8.50;99.90
63960;DHT22;50136;51.374;0.096;2023-03-25T01:34:02;8.30;99.90
63960;DHT22;50136;51.374;0.096;2023-03-25T01:44:07;8.30;99.90
63960;DHT22;50136;51.374;0.096;2023-03-25T01:54:09;8.20;99.90
63960;DHT22;50136;51.374;0.096;2023-03-25T02:04:15;8.10;99.90
63960;DHT22;50136;51.374;0.096;2023-03-25T02:14:21;8.20;99.90
63960;DHT22;50136;51.374;0.096;2023-03-25T02:25:01;8.30;99.90
63960;DHT22;50136;51.374;0.096;2023-03-25T02:35:19;8.20;99.90
63960;DHT22;50136;51.374;0.096;2023-03-25T02:45:29;8.20;99.90
63960;DHT22;50136;51.374;0.096;2023-03-25T02:55:32;8.20;99.90
63960;DHT22;50136;51.374;0.096;2023-03-25T03:05:39;8.30;99.90
63960;DHT22;50136;51.374;0.096;2023-03-25T03:15:45;8.30;99.90
63960;DHT22;50136;51.374;0.096;2023-03-25T03:25:53;8.30;99.90
63960;DHT22;50136;51.374;0.096;2023-03-25T03:35:59;8.30;99.90
63960;DHT22;50136;51.374;0.096;2023-03-25T03:46:05;8.30;99.90
63960;DHT22;50136;51.374;0.096;2023-03-25T03:56:10;8.30;99.90
63960;DHT22;50136;51.374;0.096;2023-03-25T04:06:18;8.30;99.90
63960;DHT22;50136;51.374;0.096;2023-03-25T04:16:22;8.20;99.90
63960;DHT22;50136;51.374;0.096;2023-03-25T04:26:26;8.20;99.90
63960;DHT22;50136;51.374;0.096;2023-03-25T04:36:28;8.20;99.90
63960;DHT22;50136;51.374;0.096;2023-03-25T04:46:32;8.20;99.90
63960;DHT22;50136;51.374;0.096;2023-03-25T04:56:34;8.20;99.90
63960;DHT22;50136;51.374;0.096;2023-03-25T05:06:39;8.20;99.90
63960;DHT22;50136;51.374;0.096;2023-03-25T05:16:42;8.30;99.90
63960;DHT22;50136;51.374;0.096;2023-03-25T05:26:46;8.40;99.90
63960;DHT22;50136;51.374;0.096;2023-03-25T05:36:48;8.60;99.90
63960;DHT22;50136;51.374;0.096;2023-03-25T05:46:51;8.80;99.90
63960;DHT22;50136;51.374;0.096;2023-03-25T05:56:53;8.90;99.90
63960;DHT22;50136;51.374;0.096;2023-03-25T06:06:57;9.00;99.90
63960;DHT22;50136;51.374;0.096;2023-03-25T06:16:58;9.10;99.90
63960;DHT22;50136;51.374;0.096;2023-03-25T06:27:02;9.10;99.90
63960;DHT22;50136;51.374;0.096;2023-03-25T06:37:04;9.20;99.90
63960;DHT22;50136;51.374;0.096;2023-03-25T06:47:08;9.30;99.90
63960;DHT22;50136;51.374;0.096;2023-03-25T06:57:10;9.50;99.90
63960;DHT22;50136;51.374;0.096;2023-03-25T07:07:13;9.60;99.90
63960;DHT22;50136;51.374;0.096;2023-03-25T07:17:15;10.10;99.90
63960;DHT22;50136;51.374;0.096;2023-03-25T07:27:19;10.00;99.90
63960;DHT22;50136;51.374;0.096;2023-03-25T07:37:21;10.10;99.90
63960;DHT22;50136;51.374;0.096;2023-03-25T07:47:24;10.30;99.90
63960;DHT22;50136;51.374;0.096;2023-03-25T07:57:26;10.60;99.90
63960;DHT22;50136;51.374;0.096;2023-03-25T08:07:30;10.20;99.90
63960;DHT22;50136;51.374;0.096;2023-03-25T08:17:32;10.30;99.90
63960;DHT22;50136;51.374;0.096;2023-03-25T08:27:35;10.70;99.90
63960;DHT22;50136;51.374;0.096;2023-03-25T08:37:37;10.80;99.90
63960;DHT22;50136;51.374;0.096;2023-03-25T08:47:42;10.80;99.90
63960;DHT22;50136;51.374;0.096;2023-03-25T08:57:44;11.00;99.90
63960;DHT22;50136;51.374;0.096;2023-03-25T09:07:47;11.10;99.90
63960;DHT22;50136;51.374;0.096;2023-03-25T09:17:49;11.20;99.90
63960;DHT22;50136;51.374;0.096;2023-03-25T09:27:53;11.50;99.90
63960;DHT22;50136;51.374;0.096;2023-03-25T09:38:28;11.60;99.90
63960;DHT22;50136;51.374;0.096;2023-03-25T09:48:35;12.90;99.90
63960;DHT22;50136;51.374;0.096;2023-03-25T09:58:41;12.80;99.90
63960;DHT22;50136;51.374;0.096;2023-03-25T10:09:04;12.70;99.90
63960;DHT22;50136;51.374;0.096;2023-03-25T10:19:21;13.10;99.90
63960;DHT22;50136;51.374;0.096;2023-03-25T10:29:31;13.80;99.90
63960;DHT22;50136;51.374;0.096;2023-03-25T10:39:35;14.00;99.90
63960;DHT22;50136;51.374;0.096;2023-03-25T10:49:39;13.40;99.90
63960;DHT22;50136;51.374;0.096;2023-03-25T10:59:44;13.10;99.90
63960;DHT22;50136;51.374;0.096;2023-03-25T11:09:52;13.30;99.90
63960;DHT22;50136;51.374;0.096;2023-03-25T11:31:14;14.30;99.90
63960;DHT22;50136;51.374;0.096;2023-03-25T11:52:23;14.10;99.90
63960;DHT22;50136;51.374;0.096;2023-03-25T12:02:28;14.90;99.90
63960;DHT22;50136;51.374;0.096;2023-03-25T12:12:42;14.70;99.90
63960;DHT22;50136;51.374;0.096;2023-03-25T13:06:14;14.80;99.90
63960;DHT22;50136;51.374;0.096;2023-03-25T13:16:19;14.60;99.90
63960;DHT22;50136;51.374;0.096;2023-03-25T13:37:11;14.80;99.90
63960;DHT22;50136;51.374;0.096;2023-03-25T13:47:19;15.00;99.90
63960;DHT22;50136;51.374;0.096;2023-03-25T13:57:38;14.90;99.90
63960;DHT22;50136;51.374;0.096;2023-03-25T14:08:05;15.30;99.90
63960;DHT22;50136;51.374;0.096;2023-03-25T14:29:29;15.00;99.90
63960;DHT22;50136;51.374;0.096;2023-03-25T14:39:39;15.40;99.90
63960;DHT22;50136;51.374;0.096;2023-03-25T14:49:50;16.10;98.80
63960;DHT22;50136;51.374;0.096;2023-03-25T14:59:55;15.90;97.40
63960;DHT22;50136;51.374;0.096;2023-03-25T15:10:01;16.00;98.40
63960;DHT22;50136;51.374;0.096;2023-03-25T15:20:26;15.90;98.60
63960;DHT22;50136;51.374;0.096;2023-03-25T15:30:46;15.50;99.70
63960;DHT22;50136;51.374;0.096;2023-03-25T15:41:00;15.20;99.70
63960;DHT22;50136;51.374;0.096;2023-03-25T15:51:12;14.90;99.90
63960;DHT22;50136;51.374;0.096;2023-03-25T16:01:25;14.50;99.90
63960;DHT22;50136;51.374;0.096;2023-03-25T16:11:29;14.30;99.90
63960;DHT22;50136;51.374;0.096;2023-03-25T16:21:32;14.10;98.50
63960;DHT22;50136;51.374;0.096;2023-03-25T16:31:36;13.80;99.90
63960;DHT22;50136;51.374;0.096;2023-03-25T16:41:42;13.70;99.90
63960;DHT22;50136;51.374;0.096;2023-03-25T16:51:46;13.50;99.90
63960;DHT22;50136;51.374;0.096;2023-03-25T17:01:54;13.40;99.90
63960;DHT22;50136;51.374;0.096;2023-03-25T17:11:57;13.10;99.90
63960;DHT22;50136;51.374;0.096;2023-03-25T17:22:06;13.00;99.90
63960;DHT22;50136;51.374;0.096;2023-03-25T17:32:17;13.00;99.90
63960;DHT22;50136;51.374;0.096;2023-03-25T17:42:22;12.70;99.90
63960;DHT22;50136;51.374;0.096;2023-03-25T17:52:26;12.70;99.90
63960;DHT22;50136;51.374;0.096;2023-03-25T18:02:30;12.50;99.90
63960;DHT22;50136;51.374;0.096;2023-03-25T18:12:39;12.30;99.90
63960;DHT22;50136;51.374;0.096;2023-03-25T18:22:41;12.00;99.90
63960;DHT22;50136;51.374;0.096;2023-03-25T18:32:45;11.90;99.90
63960;DHT22;50136;51.374;0.096;2023-03-25T18:42:50;11.70;99.90
63960;DHT22;50136;51.374;0.096;2023-03-25T18:52:54;11.50;99.90
63960;DHT22;50136;51.374;0.096;2023-03-25T19:02:56;11.30;99.90
63960;DHT22;50136;51.374;0.096;2023-03-25T19:13:00;11.10;99.90
63960;DHT22;50136;51.374;0.096;2023-03-25T19:23:03;10.90;99.90
63960;DHT22;50136;51.374;0.096;2023-03-25T19:33:06;11.00;99.90
63960;DHT22;50136;51.374;0.096;2023-03-25T19:43:09;10.90;99.90
63960;DHT22;50136;51.374;0.096;2023-03-25T19:53:13;10.90;99.90
63960;DHT22;50136;51.374;0.096;2023-03-25T20:03:15;10.90;99.90
63960;DHT22;50136;51.374;0.096;2023-03-25T20:13:18;10.80;99.90
63960;DHT22;50136;51.374;0.096;2023-03-25T20:23:20;10.70;99.90
63960;DHT22;50136;51.374;0.096;2023-03-25T20:33:24;10.60;99.90
63960;DHT22;50136;51.374;0.096;2023-03-25T20:43:26;10.60;99.90
63960;DHT22;50136;51.374;0.096;2023-03-25T20:53:30;10.60;99.90
63960;DHT22;50136;51.374;0.096;2023-03-25T21:03:32;10.60;99.90
63960;DHT22;50136;51.374;0.096;2023-03-25T21:13:36;10.70;99.90
63960;DHT22;50136;51.374;0.096;2023-03-25T21:23:38;10.60;99.90
63960;DHT22;50136;51.374;0.096;2023-03-25T21:33:41;10.60;99.90
63960;DHT22;50136;51.374;0.096;2023-03-25T21:43:43;10.60;99.90
63960;DHT22;50136;51.374;0.096;2023-03-25T21:53:47;10.40;99.90
63960;DHT22;50136;51.374;0.096;2023-03-25T22:03:49;10.20;99.90
63960;DHT22;50136;51.374;0.096;2023-03-25T22:13:53;10.10;99.90
63960;DHT22;50136;51.374;0.096;2023-03-25T22:23:57;10.00;99.90
63960;DHT22;50136;51.374;0.096;2023-03-25T22:34:01;10.00;99.90
63960;DHT22;50136;51.374;0.096;2023-03-25T22:44:04;9.90;99.90
63960;DHT22;50136;51.374;0.096;2023-03-25T22:54:08;9.80;99.90
63960;DHT22;50136;51.374;0.096;2023-03-25T23:04:10;9.80;99.90
63960;DHT22;50136;51.374;0.096;2023-03-25T23:14:15;9.60;99.90
63960;DHT22;50136;51.374;0.096;2023-03-25T23:24:17;9.50;99.90
63960;DHT22;50136;51.374;0.096;2023-03-25T23:34:20;9.50;99.90
63960;DHT22;50136;51.374;0.096;2023-03-25T23:44:22;9.50;99.90
63960;DHT22;50136;51.374;0.096;2023-03-25T23:54:26;9.50;99.90
